Stations météo

réclame
Mon MeteoGroup
Hallands Vaderö, Suède (2605): Température de l'air & dewpoint: 13.07.2018 23:00:00 - 19.07.2018 23:00:00 (CEST)Hallands Vaderö, Suède (2605): Vitesse du vent & gusts: 13.07.2018 23:00:00 - 19.07.2018 23:00:00 (CEST)Hallands Vaderö, Suède (2605): Direction du vent: 13.07.2018 23:00:00 - 19.07.2018 23:00:00 (CEST)Hallands Vaderö, Suède (2605): visibility: 13.07.2018 23:00:00 - 19.07.2018 23:00:00 (CEST)Hallands Vaderö, Suède (2605): Quantités de précipitations: 13.07.2018 23:00:00 - 19.07.2018 23:00:00 (CEST)
Date & Time tt [°C] td [°C] ff [km/h] ff [knt] fx [km/h] fx [knt] dd vv [km] rr [mm]
19.07.2018 23:00:00 - - - - - - - - -
19.07.2018 22:00:00 19,7 12,7 19 11 24 13 NW 50 0,0
19.07.2018 21:00:00 20,3 13,5 15 8 24 13 WNW 45 0,0
19.07.2018 20:00:00 21,2 12,6 16 9 24 13 WNW 50 0,0
19.07.2018 19:00:00 22,0 12,8 16 9 24 13 WNW 40 0,0
19.07.2018 18:00:00 22,6 13,1 16 9 26 14 WNW 42 0,0
19.07.2018 17:00:00 22,5 13,6 19 10 28 15 NW 34 0,0
19.07.2018 16:00:00 22,7 13,2 20 11 28 15 NW 43 0,0
19.07.2018 15:00:00 - - - - 28 15 - - -
19.07.2018 14:00:00 - - - - 28 15 - - -
19.07.2018 13:00:00 - - - - 28 15 - - -
19.07.2018 12:00:00 - - - - - - - - -
19.07.2018 11:00:00 - - - - - - - - -
19.07.2018 10:00:00 - - - - - - - - -
19.07.2018 09:00:00 - - - - - - - - -
19.07.2018 08:00:00 19,0 14,7 24 13 36 19 NNW 27 0,0
19.07.2018 07:00:00 18,4 14,5 26 14 37 20 NW 28 0,0
19.07.2018 06:00:00 18,1 14,8 29 15 37 20 NW 27 0,0
19.07.2018 05:00:00 18,1 15,2 28 15 38 20 NW 28 0,0
19.07.2018 04:00:00 18,2 15,3 29 16 38 20 NW 25 0,0
19.07.2018 03:00:00 18,8 16,0 27 15 40 22 NNW 16 0,0
19.07.2018 02:00:00 19,1 16,1 29 16 43 23 NNW 15 0,0
19.07.2018 01:00:00 19,2 16,2 35 19 46 25 NNW 15 0,0
19.07.2018 00:00:00 19,6 16,8 36 19 48 26 NNW 14 0,0
18.07.2018 23:00:00 20,2 16,8 36 19 48 26 NNW 18 0,0
18.07.2018 22:00:00 20,6 18,2 36 19 46 25 NNW 10 0,0
18.07.2018 21:00:00 21,0 18,0 34 19 42 23 NNW 24 0,0
18.07.2018 20:00:00 22,1 17,7 23 12 40 22 NNW 30 0,0
18.07.2018 19:00:00 21,9 17,3 24 13 40 22 NNW 39 0,0
18.07.2018 18:00:00 22,1 18,5 24 13 31 17 NNW 30 0,0
18.07.2018 17:00:00 23,0 19,2 19 10 27 14 NW 25 0,0
18.07.2018 16:00:00 23,0 19,0 16 9 27 14 N 27 0,0
18.07.2018 15:00:00 23,5 19,0 17 9 25 14 N 24 0,0
18.07.2018 14:00:00 23,0 18,5 17 9 23 13 NNW 27 0,0
18.07.2018 13:00:00 22,5 18,5 11 6 14 8 N 27 0,0
18.07.2018 12:00:00 21,7 17,9 7 4 13 7 N 25 0,0
18.07.2018 11:00:00 22,0 18,4 8 4 13 7 NNW 28 0,0
18.07.2018 10:00:00 20,9 18,1 6 3 16 9 N 22 0,0
18.07.2018 09:00:00 20,5 18,3 12 6 18 10 NNE 22 0,0
18.07.2018 08:00:00 20,6 18,5 10 5 19 10 NW 29 0,0
18.07.2018 07:00:00 20,3 18,4 12 7 21 12 N 25 0,0
18.07.2018 06:00:00 20,3 18,6 15 8 21 12 N 21 0,0
18.07.2018 05:00:00 20,1 18,2 14 8 19 10 NW 25 0,0
18.07.2018 04:00:00 20,1 18,2 15 8 18 10 NNW 25 0,0
18.07.2018 03:00:00 20,0 18,3 12 7 15 8 NNW 27 0,0
18.07.2018 02:00:00 20,1 18,4 11 6 15 8 N 16 0,0
18.07.2018 01:00:00 19,9 17,5 11 6 13 7 N 34 0,0
18.07.2018 00:00:00 19,8 17,4 11 6 13 7 NNE 36 0,0
17.07.2018 23:00:00 20,0 18,0 10 5 13 7 NNE 31 0,0
17.07.2018 22:00:00 20,1 18,0 5 3 13 7 WNW 41 0,0
17.07.2018 21:00:00 20,3 17,7 5 3 18 10 N 42 0,0
17.07.2018 20:00:00 20,3 17,7 8 4 19 11 N 34 0,0
17.07.2018 19:00:00 20,7 18,5 15 8 33 18 N 15 0,8
17.07.2018 18:00:00 22,5 17,2 15 8 33 18 E 40 0,0
17.07.2018 17:00:00 - - - - 26 14 - - -
17.07.2018 16:00:00 22,6 19,6 17 9 21 11 W 29 0,0
17.07.2018 15:00:00 23,3 19,5 13 7 18 10 W 29 0,0
17.07.2018 14:00:00 24,2 19,5 13 7 16 9 WNW 33 0,0
17.07.2018 13:00:00 25,0 18,7 0 0 10 5 N 38 0,0
17.07.2018 12:00:00 24,8 19,4 7 4 10 5 W 26 0,0
17.07.2018 11:00:00 24,6 15,5 0 0 10 6 N 35 0,0
17.07.2018 10:00:00 23,3 16,3 0 0 10 6 N 24 0,0
17.07.2018 09:00:00 22,1 17,9 8 5 10 6 S 31 0,0
17.07.2018 08:00:00 21,8 18,0 6 3 10 5 ESE 29 0,0
17.07.2018 07:00:00 19,6 18,6 6 3 9 5 SE 13 0,0
17.07.2018 06:00:00 18,8 18,0 5 3 7 4 SSE 12 0,0
17.07.2018 05:00:00 19,1 18,3 0 0 4 2 N 11 0,0
17.07.2018 04:00:00 19,6 18,8 0 0 4 2 N 9 0,0
17.07.2018 03:00:00 19,4 18,4 0 0 6 3 N 7 0,0
17.07.2018 02:00:00 - - - - 6 4 - - -
17.07.2018 01:00:00 - - - - 8 4 - - -
17.07.2018 00:00:00 - - - - 11 6 - - -
16.07.2018 23:00:00 - - - - - - - - -
16.07.2018 22:00:00 20,6 18,2 6 4 21 11 N 26 0,0
16.07.2018 21:00:00 - - - - 27 14 - - -
16.07.2018 20:00:00 22,0 17,6 16 9 29 15 N 33 0,0
16.07.2018 19:00:00 22,6 17,1 19 11 30 16 N 33 0,0
16.07.2018 18:00:00 22,9 17,1 21 12 34 18 NNW 33 0,0
16.07.2018 17:00:00 23,7 17,2 23 13 35 19 NNW 31 0,0
16.07.2018 16:00:00 23,8 17,1 24 13 35 19 NNW 26 0,0
16.07.2018 15:00:00 23,6 17,3 24 13 31 17 NNW 32 0,0
16.07.2018 14:00:00 - - - - - - - - -
16.07.2018 13:00:00 23,2 17,2 22 12 29 15 NNW 20 0,0
16.07.2018 12:00:00 23,4 17,2 21 12 29 15 NNW 17 0,0
16.07.2018 11:00:00 22,2 16,2 22 12 29 15 NNW 24 0,0
16.07.2018 10:00:00 21,3 15,4 19 10 30 16 N 21 0,0
16.07.2018 09:00:00 20,1 14,5 21 12 30 16 N 30 0,0
16.07.2018 08:00:00 19,3 14,3 22 12 31 17 N 22 0,0
16.07.2018 07:00:00 18,5 14,0 24 13 31 17 N 37 0,0
16.07.2018 06:00:00 - - - - 30 16 - - -
16.07.2018 05:00:00 17,9 14,6 22 12 29 15 N 20 0,0
16.07.2018 04:00:00 18,2 14,5 22 12 29 16 N 20 0,0
16.07.2018 03:00:00 18,2 14,5 23 12 29 15 N 20 0,0
16.07.2018 02:00:00 18,4 15,6 22 12 29 15 N 16 0,0
16.07.2018 01:00:00 18,4 16,2 21 11 29 15 N 19 0,0
16.07.2018 00:00:00 18,3 15,7 21 11 26 14 NNW 22 0,0
15.07.2018 23:00:00 18,3 15,4 19 10 24 13 NNW 23 0,0
15.07.2018 22:00:00 18,4 15,1 16 9 20 11 NNW 26 0,0
15.07.2018 21:00:00 18,8 14,7 13 7 18 10 NNW 27 0,0
15.07.2018 20:00:00 19,5 14,5 14 7 18 10 NNW 25 0,0
15.07.2018 19:00:00 20,0 14,4 11 6 20 11 NNW 26 0,0
15.07.2018 18:00:00 20,5 14,2 11 6 22 12 NNW 29 0,0
15.07.2018 17:00:00 21,2 14,1 14 7 22 12 NNW 31 0,0
15.07.2018 16:00:00 20,2 14,1 15 8 24 13 NW 26 0,0
15.07.2018 15:00:00 20,9 14,3 16 8 24 13 NW 25 0,0
15.07.2018 14:00:00 20,0 14,1 17 9 25 13 NW 28 0,0
15.07.2018 13:00:00 20,1 13,8 16 9 27 14 NW 26 0,0
15.07.2018 12:00:00 19,8 14,4 20 11 27 14 NNW 19 0,0
15.07.2018 11:00:00 19,6 14,0 19 10 26 14 NW 22 0,0
15.07.2018 10:00:00 18,8 13,9 19 11 26 14 NW 22 0,0
15.07.2018 09:00:00 18,4 13,5 17 9 26 14 NW 26 0,0
15.07.2018 08:00:00 18,3 13,2 20 11 28 15 WNW 30 0,0
15.07.2018 07:00:00 18,2 12,4 16 9 30 16 WNW 41 0,0
15.07.2018 06:00:00 18,1 13,6 19 10 30 16 WNW 33 0,0
15.07.2018 05:00:00 18,0 14,1 20 11 28 15 WNW 26 0,0
15.07.2018 04:00:00 17,5 12,6 16 9 30 16 NW 40 0,0
15.07.2018 03:00:00 17,6 12,5 19 10 30 16 WNW 46 0,0
15.07.2018 02:00:00 18,0 13,7 20 11 29 16 WNW 43 0,0
15.07.2018 01:00:00 17,6 12,5 19 10 27 15 NW 50 0,0
15.07.2018 00:00:00 17,8 12,9 14 8 19 10 WNW 50 0,0
14.07.2018 23:00:00 17,5 12,6 14 8 18 10 WNW 47 0,0
14.07.2018 22:00:00 16,9 12,4 8 4 13 7 WSW 50 0,0
14.07.2018 21:00:00 17,6 12,1 7 4 14 8 WSW 44 0,0
14.07.2018 20:00:00 18,5 12,0 9 5 17 9 W 43 0,0
14.07.2018 19:00:00 18,5 11,8 10 5 22 12 W 39 0,0
14.07.2018 18:00:00 18,4 11,0 10 6 23 12 W 36 0,0
14.07.2018 17:00:00 18,6 10,9 13 7 28 15 W 37 0,0
14.07.2018 16:00:00 19,1 11,2 18 10 28 15 W 40 0,0
14.07.2018 15:00:00 18,1 11,4 18 10 29 16 W 37 0,0
14.07.2018 14:00:00 18,9 11,5 18 10 29 16 W 44 0,0
14.07.2018 13:00:00 18,3 11,8 20 11 25 14 W 38 0,0
14.07.2018 12:00:00 18,1 11,6 13 7 25 14 WNW 38 0,0
14.07.2018 11:00:00 17,7 12,4 16 9 24 13 W 34 0,0
14.07.2018 10:00:00 17,3 12,4 17 9 27 14 W 32 0,0
14.07.2018 09:00:00 17,0 12,3 16 9 27 15 W 39 0,0
14.07.2018 08:00:00 16,6 12,1 18 10 27 15 W 35 0,0
14.07.2018 07:00:00 16,5 12,3 20 11 26 14 W 40 0,0
14.07.2018 06:00:00 16,5 12,8 20 11 28 15 W 29 0,0
14.07.2018 05:00:00 16,5 13,2 19 11 29 16 NW 26 0,0
14.07.2018 04:00:00 16,5 13,4 18 10 31 17 WNW 25 0,0
14.07.2018 03:00:00 16,7 13,8 22 12 31 17 WNW 22 0,0
14.07.2018 02:00:00 17,2 13,7 22 12 31 17 NW 19 0,0
14.07.2018 01:00:00 18,0 14,1 24 13 36 19 NW 24 0,0
14.07.2018 00:00:00 18,8 14,7 26 14 36 20 NW 20 0,0
13.07.2018 23:00:00 19,8 15,2 29 16 36 20 NW 21 0,0

tt = Température de l'air
td = dewpoint
ff = Vitesse du vent
fx = gusts
dd = Direction du vent
vv = visibility
rr = Quantités de précipitations

stations d'obs. à proximité